Thunder radar more information blitzortung!


Radar de pluja more information rain snow radar


Visita la nostra xarxa de llocs de meteo:

Template documentation
and downloads

And another site



No particular awareness of the weather is required.    There are no Weather-warnings

Pagina Historial Weather Underground text

Diari Resum Octubre 2, 2017 Unitats:  Imperial    Mètric   Tant
« Previous Dia
SegĂźent Dia »
Diari Setmana Mensual Anual Personalitzada
  Maxima: Minima: Media:
Temperatura: 75.4 °F 60.6 °F 68.4 °F
Punt de rosada: 62.4 °F 57.9 °F 59.9 °F
Humitat: 92 % 60 % 75 %
Wind Speed: 10.4 mph 0 mph 2.5 mph
RĂ fegues de vent: 10.4 mph - -
Vent:- - SSE
Pression baro: 30.2 in 30.2 in -
Precipitacions: 0 in    
Historical Graphs
 
 
Dades de taula per Octubre 2, 2017
Temps Temperatura Punt de rosada Pression baro Vent Wind Speed RĂ fegues de vent Humitat Rainfall Rate (Hourly)
00:00 61.3 °F 59 °F 30.2 in Calm     92 % 0 in
00:01 62.4 °F 58.8 °F 30.2 in Calm     88 % 0 in
00:06 62.4 °F 58.8 °F 30.2 in Calm     88 % 0 in
00:10 61.2 °F 58.8 °F 30.2 in Calm     92 % 0 in
00:11 62.4 °F 58.8 °F 30.2 in Calm     88 % 0 in
00:16 62.4 °F 58.8 °F 30.2 in Calm     88 % 0 in
00:20 61 °F 58.3 °F 30.2 in Calm     91 % 0 in
00:21 62.4 °F 58.8 °F 30.2 in Calm     88 % 0 in
00:26 62.4 °F 58.8 °F 30.2 in Calm     88 % 0 in
00:30 60.8 °F 58.3 °F 30.2 in SSE 1 mph 2 mph 91 % 0 in
00:31 62.4 °F 59.2 °F 30.2 in Calm     89 % 0 in
00:32 62.4 °F 59.2 °F 30.2 in Calm     89 % 0 in
00:37 62.4 °F 59.2 °F 30.2 in Calm     89 % 0 in
00:40 60.8 °F 58.3 °F 30.2 in SW 1 mph 2 mph 91 % 0 in
00:50 60.8 °F 58.3 °F 30.2 in Calm     91 % 0 in
01:00 60.6 °F 57.9 °F 30.2 in Calm   2 mph 91 % 0 in
01:10 60.8 °F 58.5 °F 30.2 in Calm   2 mph 92 % 0 in
01:20 60.8 °F 58.5 °F 30.2 in Calm     92 % 0 in
01:30 61 °F 58.6 °F 30.2 in Calm     92 % 0 in
01:40 61.2 °F 58.8 °F 30.2 in Calm     92 % 0 in
01:50 61.2 °F 58.8 °F 30.2 in Calm     92 % 0 in
02:00 61.3 °F 59 °F 30.2 in Calm     92 % 0 in
02:10 61.3 °F 59 °F 30.2 in Calm     92 % 0 in
02:20 61.2 °F 58.8 °F 30.2 in Calm     92 % 0 in
02:30 61.2 °F 58.8 °F 30.2 in Calm     92 % 0 in
02:50 61 °F 58.3 °F 30.2 in SW 1 mph 2 mph 91 % 0 in
03:00 61 °F 58.3 °F 30.2 in Calm   1 mph 91 % 0 in
03:10 61 °F 58.6 °F 30.2 in Calm     92 % 0 in
03:20 61.2 °F 58.8 °F 30.2 in Calm   1 mph 92 % 0 in
03:30 61.2 °F 58.8 °F 30.2 in Calm   1 mph 92 % 0 in
03:40 61.3 °F 59 °F 30.2 in Calm   1 mph 92 % 0 in
03:50 61.3 °F 59 °F 30.2 in Calm     92 % 0 in
04:00 61.3 °F 59 °F 30.2 in WSW 1 mph 2 mph 92 % 0 in
04:10 61.5 °F 59.2 °F 30.2 in Calm   1 mph 92 % 0 in
04:20 61.9 °F 59.5 °F 30.2 in Calm   1 mph 92 % 0 in
04:30 62.2 °F 59.9 °F 30.2 in Calm     92 % 0 in
04:40 62.6 °F 59.9 °F 30.2 in Calm   1 mph 91 % 0 in
04:50 62.8 °F 59.7 °F 30.2 in SW 1 mph 1 mph 90 % 0 in
05:00 63.5 °F 60.4 °F 30.2 in SW 1 mph 2 mph 90 % 0 in
05:10 64 °F 60.6 °F 30.2 in Calm   1 mph 89 % 0 in
05:20 64.6 °F 60.6 °F 30.2 in WSW 1 mph 2 mph 87 % 0 in
05:30 64.9 °F 60.6 °F 30.2 in Calm   2 mph 86 % 0 in
05:40 65.5 °F 60.8 °F 30.2 in ESE 2 mph 2 mph 85 % 0 in
05:50 66.2 °F 61.2 °F 30.2 in East 1 mph 2 mph 84 % 0 in
10:55 66.6 °F 60.4 °F 30.2 in ENE 3.5 mph 3.5 mph 81 % 0 in
11:00 67.1 °F 61.2 °F 30.2 in ENE 2.4 mph 2.4 mph 81 % 0 in
11:05 67.8 °F 61.9 °F 30.2 in ENE 4.6 mph 4.6 mph 81 % 0 in
11:10 68.2 °F 61.3 °F 30.2 in ENE 3.5 mph 3.5 mph 79 % 0 in
11:15 68.9 °F 61.9 °F 30.2 in ENE 5.8 mph 5.8 mph 78 % 0 in
11:16 68.9 °F 61.9 °F 30.2 in NE 5.8 mph 5.8 mph 78 % 0 in
11:21 69.1 °F 61.5 °F 30.2 in ENE 2.4 mph 2.4 mph 77 % 0 in
11:26 69.1 °F 61.2 °F 30.2 in East 2.6 mph 2.6 mph 76 % 0 in
11:31 68.9 °F 61 °F 30.2 in ENE 3.5 mph 3.5 mph 76 % 0 in
11:36 69.1 °F 60.8 °F 30.2 in ENE 3.5 mph 3.5 mph 75 % 0 in
11:41 69.1 °F 60.4 °F 30.2 in ENE 2.3 mph 2.3 mph 74 % 0 in
11:46 68.9 °F 59.9 °F 30.2 in East 4.6 mph 4.6 mph 73 % 0 in
11:51 69.3 °F 60.6 °F 30.2 in ENE 4.3 mph 4.3 mph 74 % 0 in
11:56 69.3 °F 60.3 °F 30.2 in ESE 2.3 mph 2.4 mph 73 % 0 in
12:01 69.8 °F 61.2 °F 30.2 in SE 4.6 mph 4.6 mph 74 % 0 in
12:06 70.2 °F 61.2 °F 30.2 in ENE 3.5 mph 3.5 mph 73 % 0 in
12:11 70.9 °F 61.9 °F 30.2 in NE 4.9 mph 4.9 mph 73 % 0 in
12:16 70.9 °F 61.3 °F 30.2 in ESE 2.6 mph 2.6 mph 72 % 0 in
12:21 70.9 °F 61 °F 30.2 in ENE 3.5 mph 3.5 mph 71 % 0 in
12:26 70.7 °F 60.4 °F 30.2 in ESE 2.4 mph 2.4 mph 70 % 0 in
12:31 70.7 °F 60.8 °F 30.2 in ENE 3.5 mph 3.5 mph 71 % 0 in
12:36 70.7 °F 60.8 °F 30.2 in East 3.5 mph 3.5 mph 71 % 0 in
12:41 71.1 °F 61.5 °F 30.2 in SW 2.3 mph 2.3 mph 72 % 0 in
12:46 71.2 °F 61.3 °F 30.2 in West 2.3 mph 2.3 mph 71 % 0 in
12:51 71.8 °F 61.2 °F 30.2 in WSW 1.2 mph 1.2 mph 69 % 0 in
12:56 72.1 °F 61.9 °F 30.2 in WSW 2.3 mph 2.3 mph 70 % 0 in
13:01 72.5 °F 61.7 °F 30.2 in SSE 2.3 mph 2.3 mph 69 % 0 in
13:06 72.1 °F 61 °F 30.2 in ENE 4.6 mph 4.6 mph 68 % 0 in
13:11 72 °F 60.8 °F 30.2 in ESE 2.3 mph 2.3 mph 68 % 0 in
13:16 71.6 °F 59.5 °F 30.2 in ESE 3.5 mph 3.5 mph 66 % 0 in
13:21 72.5 °F 61 °F 30.2 in South 4.6 mph 4.6 mph 67 % 0 in
13:26 72.9 °F 60.8 °F 30.2 in SW 2.3 mph 2.3 mph 66 % 0 in
13:31 73.4 °F 61.3 °F 30.2 in SE 3.1 mph 3.1 mph 66 % 0 in
13:36 73.8 °F 61.3 °F 30.2 in ESE 5.8 mph 5.8 mph 65 % 0 in
13:41 73.6 °F 60.6 °F 30.2 in ENE 2.3 mph 2.4 mph 64 % 0 in
13:46 74.5 °F 60.6 °F 30.2 in ESE 4.3 mph 4.3 mph 62 % 0 in
13:51 75 °F 62.4 °F 30.2 in NNW 2.3 mph 2.3 mph 65 % 0 in
13:56 74.7 °F 61.2 °F 30.2 in NNE 2.6 mph 2.6 mph 63 % 0 in
14:01 73.8 °F 60.8 °F 30.2 in NNE 4.6 mph 4.6 mph 64 % 0 in
14:06 73.8 °F 60.8 °F 30.2 in ESE 3.5 mph 3.5 mph 64 % 0 in
14:11 74.5 °F 61.2 °F 30.2 in SSW 1.4 mph 1.4 mph 63 % 0 in
14:16 74.1 °F 60.3 °F 30.2 in NE 4.6 mph 4.6 mph 62 % 0 in
14:21 74.1 °F 61.5 °F 30.2 in NW 3.5 mph 3.5 mph 65 % 0 in
14:26 74.5 °F 61.5 °F 30.2 in NNW 2.9 mph 2.9 mph 64 % 0 in
14:31 74.7 °F 61.2 °F 30.2 in WNW 2.3 mph 2.3 mph 63 % 0 in
14:32 74.7 °F 61.2 °F 30.2 in ESE 2.3 mph 2.3 mph 63 % 0 in
14:37 74.3 °F 60.4 °F 30.2 in ENE 2.3 mph 2.3 mph 62 % 0 in
14:42 73.9 °F 60.1 °F 30.2 in SSE 3.5 mph 3.5 mph 62 % 0 in
14:47 74.3 °F 61 °F 30.2 in West 1.2 mph   63 % 0 in
14:52 74.7 °F 60.8 °F 30.2 in ENE 2.4 mph 2.4 mph 62 % 0 in
14:57 74.8 °F 61 °F 30.2 in NE 2 mph   62 % 0 in
15:02 75.4 °F 61.5 °F 30.2 in SSW 2.3 mph 2.3 mph 62 % 0 in
15:07 74.8 °F 60.4 °F 30.2 in SSE 3.5 mph 3.5 mph 61 % 0 in
15:12 74.5 °F 59.7 °F 30.2 in East 4.6 mph 4.6 mph 60 % 0 in
15:17 74.3 °F 59.5 °F 30.2 in ESE 3.8 mph 3.8 mph 60 % 0 in
15:22 74.3 °F 60.1 °F 30.2 in East 2.3 mph 2.3 mph 61 % 0 in
15:27 74.3 °F 60.1 °F 30.2 in ESE 2.3 mph 2.3 mph 61 % 0 in
15:32 74.3 °F 60.1 °F 30.2 in NE 2.3 mph 2.3 mph 61 % 0 in
15:37 74.5 °F 60.1 °F 30.2 in NNE 2.3 mph 2.3 mph 61 % 0 in
15:42 74.3 °F 60.1 °F 30.2 in East 3.5 mph 3.5 mph 61 % 0 in
15:47 74.3 °F 60.1 °F 30.2 in NE 2.3 mph 2.6 mph 61 % 0 in
15:52 74.8 °F 61 °F 30.2 in ESE 2.4 mph 2.4 mph 62 % 0 in
15:57 75 °F 61.2 °F 30.2 in ENE 3.5 mph 3.5 mph 62 % 0 in
16:02 74.7 °F 60.8 °F 30.2 in East 3.8 mph 3.8 mph 62 % 0 in
16:07 74.5 °F 60.1 °F 30.2 in ESE 4.6 mph 4.6 mph 61 % 0 in
16:12 74.5 °F 60.6 °F 30.2 in East 5.8 mph 5.8 mph 62 % 0 in
16:17 74.8 °F 60.4 °F 30.2 in ESE 5.8 mph 5.8 mph 61 % 0 in
16:22 75.2 °F 60.8 °F 30.2 in East 3.5 mph 4.3 mph 61 % 0 in
16:27 74.7 °F 60.3 °F 30.2 in East 8.1 mph 8.1 mph 61 % 0 in
16:32 74.3 °F 60.1 °F 30.2 in East 8.1 mph 8.1 mph 61 % 0 in
16:37 74.3 °F 60.1 °F 30.2 in ENE 5.8 mph 5.8 mph 61 % 0 in
16:42 74.3 °F 60.1 °F 30.2 in East 5.9 mph 5.9 mph 61 % 0 in
16:47 74.1 °F 59.7 °F 30.2 in East 6.9 mph 6.9 mph 61 % 0 in
16:52 73.8 °F 59.5 °F 30.2 in NE 10.4 mph 10.4 mph 61 % 0 in
16:57 73.6 °F 59.7 °F 30.2 in East 8.1 mph 8.1 mph 62 % 0 in
17:02 73.6 °F 59.7 °F 30.2 in ESE 3.5 mph 4 mph 62 % 0 in
17:07 73.4 °F 59.5 °F 30.2 in ESE 10.4 mph 10.4 mph 62 % 0 in
17:12 73 °F 59.2 °F 30.2 in ESE 8.1 mph 8.1 mph 62 % 0 in
17:17 73.2 °F 59.9 °F 30.2 in ESE 5.8 mph 5.8 mph 63 % 0 in
17:22 73 °F 59.7 °F 30.2 in ESE 5.8 mph 5.9 mph 63 % 0 in
17:27 72.9 °F 59.5 °F 30.2 in SE 8.1 mph 8.1 mph 63 % 0 in
17:32 72.5 °F 59.2 °F 30.2 in ESE 8.1 mph 8.1 mph 63 % 0 in
17:37 72.7 °F 59.7 °F 30.2 in ESE 6.9 mph 6.9 mph 64 % 0 in
17:42 72.5 °F 59.5 °F 30.2 in ESE 7.6 mph 7.6 mph 64 % 0 in
17:47 72.3 °F 59.5 °F 30.2 in SE 6 mph 6 mph 64 % 0 in
17:52 72.3 °F 59.9 °F 30.2 in ESE 4.6 mph 4.6 mph 65 % 0 in
17:57 72.1 °F 59.7 °F 30.2 in SSE 7.6 mph 7.6 mph 65 % 0 in
18:02 72 °F 60.1 °F 30.2 in ESE 5.4 mph 5.4 mph 66 % 0 in
18:07 72 °F 60.1 °F 30.2 in ENE 4.6 mph 4.6 mph 66 % 0 in
18:12 72 °F 60.1 °F 30.2 in ENE 4.6 mph 4.6 mph 66 % 0 in
18:17 72 °F 60.4 °F 30.2 in ENE 5.8 mph 5.8 mph 67 % 0 in
18:22 72 °F 60.4 °F 30.2 in East 4.6 mph 4.6 mph 67 % 0 in
18:27 72 °F 60.4 °F 30.2 in ESE 3.8 mph 3.8 mph 67 % 0 in
18:32 71.8 °F 60.3 °F 30.2 in SSE 4.6 mph 4.6 mph 67 % 0 in
18:37 72 °F 60.4 °F 30.2 in South 2.4 mph 2.4 mph 67 % 0 in
18:42 72 °F 60.4 °F 30.2 in SSE 2.9 mph 2.9 mph 67 % 0 in
18:47 72 °F 60.4 °F 30.2 in West 1.2 mph   67 % 0 in
18:52 72 °F 60.4 °F 30.2 in WSW 1.2 mph 1.4 mph 67 % 0 in
18:57 71.8 °F 60.3 °F 30.2 in SSW 3.5 mph 3.5 mph 67 % 0 in
19:02 71.8 °F 60.3 °F 30.2 in WSW 2.4 mph 2.4 mph 67 % 0 in
19:07 71.6 °F 60.4 °F 30.2 in SSW 3.6 mph 3.6 mph 68 % 0 in
19:12 71.2 °F 60.4 °F 30.2 in SW 4.6 mph 4.6 mph 69 % 0 in
19:17 71.1 °F 60.4 °F 30.2 in SSW 5.8 mph 5.8 mph 69 % 0 in
19:22 70.9 °F 60.6 °F 30.2 in SW 5.8 mph 5.8 mph 70 % 0 in
19:27 70.7 °F 60.4 °F 30.2 in SW 3.5 mph 3.5 mph 70 % 0 in
19:30 66 °F 59.4 °F 30.2 in Calm     79 % 0 in
19:32 70.5 °F 60.3 °F 30.2 in SW 3.5 mph 3.5 mph 70 % 0 in
19:37 70.2 °F 59.9 °F 30.2 in SW 8.1 mph 8.1 mph 70 % 0 in
19:40 65.8 °F 59.2 °F 30.2 in Calm     79 % 0 in
19:42 70.2 °F 59.9 °F 30.2 in SW 3.5 mph 3.5 mph 70 % 0 in
19:47 69.8 °F 60.1 °F 30.2 in SSW 3.8 mph 3.8 mph 71 % 0 in
19:50 65.7 °F 59 °F 30.2 in Calm   1 mph 79 % 0 in
19:52 69.6 °F 59.7 °F 30.2 in SSW 3.5 mph 3.5 mph 71 % 0 in
19:57 69.4 °F 59.5 °F 30.2 in SW 4.6 mph 4.6 mph 71 % 0 in
20:00 65.3 °F 59 °F 30.2 in Calm     80 % 0 in
20:02 69.3 °F 59.7 °F 30.2 in SW 4.6 mph 4.6 mph 72 % 0 in
20:07 69.1 °F 59.7 °F 30.2 in WSW 4.6 mph 4.6 mph 72 % 0 in
20:10 65.1 °F 58.8 °F 30.2 in Calm     80 % 0 in
20:12 69.1 °F 59.7 °F 30.2 in SSW 3.1 mph 3.1 mph 72 % 0 in
20:17 68.9 °F 59.5 °F 30.2 in SW 3.3 mph 3.3 mph 72 % 0 in
20:20 64.9 °F 58.6 °F 30.2 in Calm     80 % 0 in
20:22 68.7 °F 59.7 °F 30.2 in South 3.5 mph 3.5 mph 73 % 0 in
20:27 68.7 °F 59.7 °F 30.2 in SW 5.8 mph 5.8 mph 73 % 0 in
20:30 64.9 °F 59 °F 30.2 in Calm   1 mph 81 % 0 in
20:32 68.7 °F 59.7 °F 30.2 in SW 4.6 mph 4.6 mph 73 % 0 in
20:37 68.5 °F 59.9 °F 30.2 in SW 2.6 mph 2.6 mph 74 % 0 in
20:40 64.6 °F 58.6 °F 30.2 in Calm     81 % 0 in
20:42 68.5 °F 59.9 °F 30.2 in WSW 3.5 mph 3.5 mph 74 % 0 in
20:47 68.5 °F 59.9 °F 30.2 in WSW 2.4 mph 2.4 mph 74 % 0 in
20:50 64.6 °F 59 °F 30.2 in Calm     82 % 0 in
20:52 68.4 °F 59.7 °F 30.2 in SW 3.5 mph 3.5 mph 74 % 0 in
20:57 68.4 °F 60.1 °F 30.2 in SW 3.5 mph 3.5 mph 75 % 0 in
21:00 64.6 °F 59 °F 30.2 in Calm     82 % 0 in
21:02 68.2 °F 60.1 °F 30.2 in SW 2.3 mph 2.3 mph 75 % 0 in
21:07 68 °F 59.7 °F 30.2 in SW 2.4 mph 2.4 mph 75 % 0 in
21:10 64.4 °F 58.8 °F 30.2 in Calm   1 mph 82 % 0 in
21:12 68 °F 59.7 °F 30.2 in WSW 2.3 mph 2.9 mph 75 % 0 in
21:17 68 °F 60.3 °F 30.2 in SW 2.3 mph 2.3 mph 76 % 0 in
21:20 64 °F 58.5 °F 30.2 in Calm     82 % 0 in
21:22 67.8 °F 60.1 °F 30.2 in WSW 2.3 mph 2.3 mph 76 % 0 in
21:27 67.6 °F 59.7 °F 30.2 in WSW 2.3 mph 2.3 mph 76 % 0 in
21:30 64 °F 58.8 °F 30.2 in Calm     83 % 0 in
21:32 67.6 °F 59.7 °F 30.2 in West 3.5 mph 3.5 mph 76 % 0 in
21:37 67.5 °F 60.1 °F 30.2 in SW 2.3 mph 2.3 mph 77 % 0 in
21:40 64 °F 58.8 °F 30.2 in Calm     83 % 0 in
21:42 67.5 °F 60.1 °F 30.2 in SSW 2.3 mph 2.3 mph 77 % 0 in
21:47 67.5 °F 60.1 °F 30.2 in WSW 2.3 mph 2.3 mph 77 % 0 in
21:50 63.9 °F 58.6 °F 30.2 in Calm     83 % 0 in
21:52 67.3 °F 59.7 °F 30.2 in West 2.3 mph   77 % 0 in
21:57 67.3 °F 59.7 °F 30.2 in West 2.3 mph   77 % 0 in
22:00 63.9 °F 58.8 °F 30.2 in Calm     84 % 0 in
22:02 67.3 °F 59.7 °F 30.2 in SW 2.3 mph 2.3 mph 77 % 0 in
22:07 67.3 °F 59.7 °F 30.2 in WSW 2.3 mph 2.3 mph 77 % 0 in
22:10 63.7 °F 58.5 °F 30.2 in Calm     83 % 0 in
22:12 67.1 °F 59.5 °F 30.2 in SW 2.3 mph 2.3 mph 77 % 0 in
22:17 67.1 °F 59.5 °F 30.2 in SW 2.3 mph 2.3 mph 77 % 0 in
22:20 64 °F 59.2 °F 30.2 in Calm     84 % 0 in
22:22 67.1 °F 59.5 °F 30.2 in WSW 1.6 mph 1.6 mph 77 % 0 in
22:27 66.9 °F 59.5 °F 30.2 in SW 2.3 mph 2.3 mph 77 % 0 in
22:30 64.6 °F 59.4 °F 30.2 in Calm     83 % 0 in
22:32 66.9 °F 59.5 °F 30.2 in SW 3.5 mph 3.5 mph 77 % 0 in
22:37 66.9 °F 59.5 °F 30.2 in SW 1.2 mph 1.2 mph 77 % 0 in
22:40 64.8 °F 59.5 °F 30.2 in Calm     83 % 0 in
22:42 66.9 °F 59.5 °F 30.2 in SW 2.3 mph 2.3 mph 77 % 0 in
22:47 66.9 °F 59.5 °F 30.2 in SW 1.2 mph 1.4 mph 77 % 0 in
22:50 64.9 °F 59.4 °F 30.2 in Calm     82 % 0 in
22:52 66.9 °F 59.5 °F 30.2 in SW 1.2 mph 1.2 mph 77 % 0 in
22:57 66.9 °F 59.5 °F 30.2 in SW 1.2 mph 1.2 mph 77 % 0 in
23:00 65.1 °F 59.5 °F 30.2 in Calm     82 % 0 in
23:02 66.9 °F 59.5 °F 30.2 in SW 1.2 mph   77 % 0 in
23:07 67.1 °F 59.5 °F 30.2 in West 2.3 mph 2.3 mph 77 % 0 in
23:10 64.9 °F 59.4 °F 30.2 in Calm     82 % 0 in
23:12 67.1 °F 59.5 °F 30.2 in WSW 3.5 mph 3.5 mph 77 % 0 in
23:17 67.1 °F 59.5 °F 30.2 in WSW 2.3 mph 2.3 mph 77 % 0 in
23:20 64.6 °F 59 °F 30.2 in Calm     82 % 0 in
23:22 67.1 °F 59.5 °F 30.2 in WSW 2.3 mph 2.3 mph 77 % 0 in
23:27 67.1 °F 59.5 °F 30.2 in WSW 2.3 mph 2.3 mph 77 % 0 in
23:30 64 °F 58.8 °F 30.2 in Calm     83 % 0 in
23:32 66.9 °F 59.5 °F 30.2 in WSW 2.3 mph 2.3 mph 77 % 0 in
23:37 66.9 °F 59.5 °F 30.2 in Calm     77 % 0 in
23:40 63.5 °F 58.3 °F 30.2 in Calm     83 % 0 in
23:42 66.7 °F 59.4 °F 30.2 in Calm     77 % 0 in
23:47 66.7 °F 59.4 °F 30.2 in SW 2 mph   77 % 0 in
23:50 63.1 °F 58.3 °F 30.2 in Calm     84 % 0 in
23:52 66.7 °F 59.4 °F 30.2 in WSW 1.6 mph 1.6 mph 77 % 0 in
23:57 66.6 °F 59.2 °F 30.2 in WSW 1.2 mph 1.2 mph 77 % 0 in
Meteo Sesrovires
Elogis d' Weather Underground - 3.75 mb

Guio original per  Jim McMurry - jmcmurry@mwt.net Adaptat per a la plantilla per  Wim van der Kuil - Leuven-Template.eu

Trobareu la nostra informacio del temps tambe a:

Weather Underground

AWEKAS